sensor_id;sensor_type;location;lat;lon;timestamp;temperature;humidity
18597;DHT22;9428;50.950;6.912;2022-11-15T00:01:45;10.60;99.90
18597;DHT22;9428;50.950;6.912;2022-11-15T00:04:33;10.60;99.90
18597;DHT22;9428;50.950;6.912;2022-11-15T00:07:20;10.70;99.90
18597;DHT22;9428;50.950;6.912;2022-11-15T00:10:08;10.70;99.90
18597;DHT22;9428;50.950;6.912;2022-11-15T00:12:55;10.60;99.90
18597;DHT22;9428;50.950;6.912;2022-11-15T00:15:42;10.70;99.90
18597;DHT22;9428;50.950;6.912;2022-11-15T00:18:30;10.70;99.90
18597;DHT22;9428;50.950;6.912;2022-11-15T00:21:19;10.70;99.90
18597;DHT22;9428;50.950;6.912;2022-11-15T00:24:06;10.70;99.90
18597;DHT22;9428;50.950;6.912;2022-11-15T00:26:53;10.70;99.90
18597;DHT22;9428;50.950;6.912;2022-11-15T00:29:41;10.70;99.90
18597;DHT22;9428;50.950;6.912;2022-11-15T00:32:31;11.30;99.90
18597;DHT22;9428;50.950;6.912;2022-11-15T00:35:18;10.80;99.90
18597;DHT22;9428;50.950;6.912;2022-11-15T00:38:07;11.10;99.90
18597;DHT22;9428;50.950;6.912;2022-11-15T00:40:54;10.80;99.90
18597;DHT22;9428;50.950;6.912;2022-11-15T00:43:42;10.90;99.90
18597;DHT22;9428;50.950;6.912;2022-11-15T00:46:29;10.90;99.90
18597;DHT22;9428;50.950;6.912;2022-11-15T00:49:17;11.20;99.90
18597;DHT22;9428;50.950;6.912;2022-11-15T00:52:04;11.20;99.90
18597;DHT22;9428;50.950;6.912;2022-11-15T00:54:52;10.90;99.90
18597;DHT22;9428;50.950;6.912;2022-11-15T00:57:40;10.90;99.90
18597;DHT22;9428;50.950;6.912;2022-11-15T01:00:27;11.60;99.90
18597;DHT22;9428;50.950;6.912;2022-11-15T01:03:14;10.90;99.90
18597;DHT22;9428;50.950;6.912;2022-11-15T01:06:02;11.00;99.90
18597;DHT22;9428;50.950;6.912;2022-11-15T01:08:49;11.00;99.90
18597;DHT22;9428;50.950;6.912;2022-11-15T01:11:38;10.90;99.90
18597;DHT22;9428;50.950;6.912;2022-11-15T01:14:25;11.00;99.90
18597;DHT22;9428;50.950;6.912;2022-11-15T01:17:12;11.00;99.90
18597;DHT22;9428;50.950;6.912;2022-11-15T01:19:59;11.60;99.90
18597;DHT22;9428;50.950;6.912;2022-11-15T01:22:46;11.10;99.90
18597;DHT22;9428;50.950;6.912;2022-11-15T01:25:34;11.10;99.90
18597;DHT22;9428;50.950;6.912;2022-11-15T01:28:22;11.10;99.90
18597;DHT22;9428;50.950;6.912;2022-11-15T01:31:12;11.10;99.90
18597;DHT22;9428;50.950;6.912;2022-11-15T01:34:00;11.70;99.90
18597;DHT22;9428;50.950;6.912;2022-11-15T01:36:47;11.10;99.90
18597;DHT22;9428;50.950;6.912;2022-11-15T01:39:34;11.10;99.90
18597;DHT22;9428;50.950;6.912;2022-11-15T01:42:21;11.60;99.90
18597;DHT22;9428;50.950;6.912;2022-11-15T01:45:14;11.20;99.90
18597;DHT22;9428;50.950;6.912;2022-11-15T01:48:01;11.60;99.90
18597;DHT22;9428;50.950;6.912;2022-11-15T01:50:49;11.20;99.90
18597;DHT22;9428;50.950;6.912;2022-11-15T01:53:38;11.70;99.90
18597;DHT22;9428;50.950;6.912;2022-11-15T01:56:30;11.80;99.90
18597;DHT22;9428;50.950;6.912;2022-11-15T01:59:18;11.20;99.90
18597;DHT22;9428;50.950;6.912;2022-11-15T02:02:07;11.20;99.90
18597;DHT22;9428;50.950;6.912;2022-11-15T02:04:55;11.20;99.90
18597;DHT22;9428;50.950;6.912;2022-11-15T02:07:42;11.30;99.90
18597;DHT22;9428;50.950;6.912;2022-11-15T02:10:30;11.30;99.90
18597;DHT22;9428;50.950;6.912;2022-11-15T02:13:18;11.30;99.90
18597;DHT22;9428;50.950;6.912;2022-11-15T02:16:12;11.30;99.90
18597;DHT22;9428;50.950;6.912;2022-11-15T02:19:19;11.30;99.90
18597;DHT22;9428;50.950;6.912;2022-11-15T02:22:19;11.30;99.90
18597;DHT22;9428;50.950;6.912;2022-11-15T02:25:21;11.40;99.90
18597;DHT22;9428;50.950;6.912;2022-11-15T02:28:41;11.40;99.90
18597;DHT22;9428;50.950;6.912;2022-11-15T02:31:36;11.40;99.90
18597;DHT22;9428;50.950;6.912;2022-11-15T02:34:28;11.40;99.90
18597;DHT22;9428;50.950;6.912;2022-11-15T02:37:26;11.60;99.90
18597;DHT22;9428;50.950;6.912;2022-11-15T02:40:23;11.60;99.90
18597;DHT22;9428;50.950;6.912;2022-11-15T02:43:18;11.40;99.90
18597;DHT22;9428;50.950;6.912;2022-11-15T02:46:33;11.40;99.90
18597;DHT22;9428;50.950;6.912;2022-11-15T02:49:41;11.50;99.90
18597;DHT22;9428;50.950;6.912;2022-11-15T02:52:29;12.00;99.90
18597;DHT22;9428;50.950;6.912;2022-11-15T02:55:27;11.40;99.90
18597;DHT22;9428;50.950;6.912;2022-11-15T02:58:38;11.50;99.90
18597;DHT22;9428;50.950;6.912;2022-11-15T03:01:41;11.50;99.90
18597;DHT22;9428;50.950;6.912;2022-11-15T03:04:41;11.50;99.90
18597;DHT22;9428;50.950;6.912;2022-11-15T03:07:34;11.40;99.90
18597;DHT22;9428;50.950;6.912;2022-11-15T03:10:29;11.80;99.90
18597;DHT22;9428;50.950;6.912;2022-11-15T03:13:27;11.60;99.90
18597;DHT22;9428;50.950;6.912;2022-11-15T03:16:20;11.50;99.90
18597;DHT22;9428;50.950;6.912;2022-11-15T03:19:30;11.40;99.90
18597;DHT22;9428;50.950;6.912;2022-11-15T03:22:21;11.50;99.90
18597;DHT22;9428;50.950;6.912;2022-11-15T03:25:13;11.50;99.90
18597;DHT22;9428;50.950;6.912;2022-11-15T03:28:05;11.50;99.90
18597;DHT22;9428;50.950;6.912;2022-11-15T03:30:55;11.50;99.90
18597;DHT22;9428;50.950;6.912;2022-11-15T03:33:43;11.70;99.90
18597;DHT22;9428;50.950;6.912;2022-11-15T03:36:34;11.50;99.90
18597;DHT22;9428;50.950;6.912;2022-11-15T03:39:22;11.60;99.90
18597;DHT22;9428;50.950;6.912;2022-11-15T03:42:18;11.60;99.90
18597;DHT22;9428;50.950;6.912;2022-11-15T03:45:13;11.70;99.90
18597;DHT22;9428;50.950;6.912;2022-11-15T03:48:06;11.60;99.90
18597;DHT22;9428;50.950;6.912;2022-11-15T03:50:56;12.20;99.90
18597;DHT22;9428;50.950;6.912;2022-11-15T03:53:45;11.70;99.90
18597;DHT22;9428;50.950;6.912;2022-11-15T03:56:32;12.20;99.90
18597;DHT22;9428;50.950;6.912;2022-11-15T03:59:20;12.40;99.90
18597;DHT22;9428;50.950;6.912;2022-11-15T04:02:07;11.70;99.90
18597;DHT22;9428;50.950;6.912;2022-11-15T04:04:54;11.70;99.90
18597;DHT22;9428;50.950;6.912;2022-11-15T04:07:42;11.70;99.90
18597;DHT22;9428;50.950;6.912;2022-11-15T04:10:30;12.00;99.90
18597;DHT22;9428;50.950;6.912;2022-11-15T04:13:17;11.70;99.90
18597;DHT22;9428;50.950;6.912;2022-11-15T04:16:05;11.90;99.90
18597;DHT22;9428;50.950;6.912;2022-11-15T04:18:52;11.70;99.90
18597;DHT22;9428;50.950;6.912;2022-11-15T04:21:53;11.70;99.90
18597;DHT22;9428;50.950;6.912;2022-11-15T04:24:58;11.70;99.90
18597;DHT22;9428;50.950;6.912;2022-11-15T04:27:47;11.70;99.90
18597;DHT22;9428;50.950;6.912;2022-11-15T04:30:34;12.00;99.90
18597;DHT22;9428;50.950;6.912;2022-11-15T04:33:21;11.70;99.90
18597;DHT22;9428;50.950;6.912;2022-11-15T04:36:09;11.60;99.90
18597;DHT22;9428;50.950;6.912;2022-11-15T04:39:12;11.40;99.90
18597;DHT22;9428;50.950;6.912;2022-11-15T04:42:00;11.60;99.90
18597;DHT22;9428;50.950;6.912;2022-11-15T04:44:48;12.20;99.90
18597;DHT22;9428;50.950;6.912;2022-11-15T04:47:36;12.10;99.90
18597;DHT22;9428;50.950;6.912;2022-11-15T04:50:23;11.80;99.90
18597;DHT22;9428;50.950;6.912;2022-11-15T04:53:10;11.80;99.90
18597;DHT22;9428;50.950;6.912;2022-11-15T04:55:57;11.70;99.90
18597;DHT22;9428;50.950;6.912;2022-11-15T04:58:45;11.80;99.90
18597;DHT22;9428;50.950;6.912;2022-11-15T05:01:33;11.70;99.90
18597;DHT22;9428;50.950;6.912;2022-11-15T05:04:20;11.80;99.90
18597;DHT22;9428;50.950;6.912;2022-11-15T05:07:07;12.40;99.90
18597;DHT22;9428;50.950;6.912;2022-11-15T05:09:54;11.70;99.90
18597;DHT22;9428;50.950;6.912;2022-11-15T05:12:41;11.80;99.90
18597;DHT22;9428;50.950;6.912;2022-11-15T05:15:28;11.70;99.90
18597;DHT22;9428;50.950;6.912;2022-11-15T05:18:17;11.60;99.90
18597;DHT22;9428;50.950;6.912;2022-11-15T05:21:05;11.70;99.90
18597;DHT22;9428;50.950;6.912;2022-11-15T05:23:52;11.70;99.90
18597;DHT22;9428;50.950;6.912;2022-11-15T05:26:40;11.60;99.90
18597;DHT22;9428;50.950;6.912;2022-11-15T05:29:27;11.60;99.90
18597;DHT22;9428;50.950;6.912;2022-11-15T05:32:14;11.80;99.90
18597;DHT22;9428;50.950;6.912;2022-11-15T05:35:07;11.70;99.90
18597;DHT22;9428;50.950;6.912;2022-11-15T05:37:55;11.70;99.90
18597;DHT22;9428;50.950;6.912;2022-11-15T05:40:43;11.60;99.90
18597;DHT22;9428;50.950;6.912;2022-11-15T05:43:32;11.60;99.90
18597;DHT22;9428;50.950;6.912;2022-11-15T05:46:20;11.50;99.90
18597;DHT22;9428;50.950;6.912;2022-11-15T05:49:10;11.50;99.90
18597;DHT22;9428;50.950;6.912;2022-11-15T05:51:59;11.50;99.90
18597;DHT22;9428;50.950;6.912;2022-11-15T05:54:47;11.40;99.90
18597;DHT22;9428;50.950;6.912;2022-11-15T05:57:34;11.40;99.90
18597;DHT22;9428;50.950;6.912;2022-11-15T06:00:22;11.40;99.90
18597;DHT22;9428;50.950;6.912;2022-11-15T06:03:09;11.40;99.90
18597;DHT22;9428;50.950;6.912;2022-11-15T06:05:56;11.30;99.90
18597;DHT22;9428;50.950;6.912;2022-11-15T06:08:45;11.30;99.90
18597;DHT22;9428;50.950;6.912;2022-11-15T06:11:33;11.90;99.90
18597;DHT22;9428;50.950;6.912;2022-11-15T06:14:20;11.70;99.90
18597;DHT22;9428;50.950;6.912;2022-11-15T06:17:08;11.20;99.90
18597;DHT22;9428;50.950;6.912;2022-11-15T06:19:55;11.70;99.90
18597;DHT22;9428;50.950;6.912;2022-11-15T06:22:42;11.20;99.90
18597;DHT22;9428;50.950;6.912;2022-11-15T06:25:31;11.30;99.90
18597;DHT22;9428;50.950;6.912;2022-11-15T06:28:18;11.20;99.90
18597;DHT22;9428;50.950;6.912;2022-11-15T06:31:07;11.20;99.90
18597;DHT22;9428;50.950;6.912;2022-11-15T06:33:55;11.10;99.90
18597;DHT22;9428;50.950;6.912;2022-11-15T06:36:42;11.10;99.90
18597;DHT22;9428;50.950;6.912;2022-11-15T06:39:29;11.10;99.90
18597;DHT22;9428;50.950;6.912;2022-11-15T06:42:18;11.10;99.90
18597;DHT22;9428;50.950;6.912;2022-11-15T06:45:06;11.10;99.90
18597;DHT22;9428;50.950;6.912;2022-11-15T06:47:53;11.10;99.90
18597;DHT22;9428;50.950;6.912;2022-11-15T06:50:40;11.80;99.90
18597;DHT22;9428;50.950;6.912;2022-11-15T06:53:29;11.10;99.90
18597;DHT22;9428;50.950;6.912;2022-11-15T06:56:16;11.60;99.90
18597;DHT22;9428;50.950;6.912;2022-11-15T06:59:05;11.30;99.90
18597;DHT22;9428;50.950;6.912;2022-11-15T07:01:52;11.00;99.90
18597;DHT22;9428;50.950;6.912;2022-11-15T07:04:39;11.00;99.90
18597;DHT22;9428;50.950;6.912;2022-11-15T07:07:27;11.00;99.90
18597;DHT22;9428;50.950;6.912;2022-11-15T07:10:14;11.00;99.90
18597;DHT22;9428;50.950;6.912;2022-11-15T07:13:02;11.00;99.90
18597;DHT22;9428;50.950;6.912;2022-11-15T07:15:51;10.90;99.90
18597;DHT22;9428;50.950;6.912;2022-11-15T07:18:39;11.00;99.90
18597;DHT22;9428;50.950;6.912;2022-11-15T07:21:26;11.20;99.90
18597;DHT22;9428;50.950;6.912;2022-11-15T07:24:13;11.00;99.90
18597;DHT22;9428;50.950;6.912;2022-11-15T07:27:01;11.00;99.90
18597;DHT22;9428;50.950;6.912;2022-11-15T07:29:48;11.00;99.90
18597;DHT22;9428;50.950;6.912;2022-11-15T07:32:36;11.00;99.90
18597;DHT22;9428;50.950;6.912;2022-11-15T07:35:25;11.60;99.90
18597;DHT22;9428;50.950;6.912;2022-11-15T07:38:12;11.10;99.90
18597;DHT22;9428;50.950;6.912;2022-11-15T07:41:04;11.00;99.90
18597;DHT22;9428;50.950;6.912;2022-11-15T07:43:51;11.00;99.90
18597;DHT22;9428;50.950;6.912;2022-11-15T07:46:39;11.00;99.90
18597;DHT22;9428;50.950;6.912;2022-11-15T07:49:27;11.00;99.90
18597;DHT22;9428;50.950;6.912;2022-11-15T07:52:15;11.10;99.90
18597;DHT22;9428;50.950;6.912;2022-11-15T07:55:04;11.10;99.90
18597;DHT22;9428;50.950;6.912;2022-11-15T07:57:51;11.00;99.90
18597;DHT22;9428;50.950;6.912;2022-11-15T08:00:39;11.10;99.90
18597;DHT22;9428;50.950;6.912;2022-11-15T08:03:26;11.20;99.90
18597;DHT22;9428;50.950;6.912;2022-11-15T08:06:14;11.10;99.90
18597;DHT22;9428;50.950;6.912;2022-11-15T08:09:02;11.10;99.90
18597;DHT22;9428;50.950;6.912;2022-11-15T08:11:49;11.20;99.90
18597;DHT22;9428;50.950;6.912;2022-11-15T08:14:36;11.30;99.90
18597;DHT22;9428;50.950;6.912;2022-11-15T08:17:24;11.30;99.90
18597;DHT22;9428;50.950;6.912;2022-11-15T08:20:11;11.70;99.90
18597;DHT22;9428;50.950;6.912;2022-11-15T08:23:01;11.60;99.90
18597;DHT22;9428;50.950;6.912;2022-11-15T08:25:49;11.30;99.90
18597;DHT22;9428;50.950;6.912;2022-11-15T08:28:36;11.20;99.90
18597;DHT22;9428;50.950;6.912;2022-11-15T08:31:23;11.60;99.90
18597;DHT22;9428;50.950;6.912;2022-11-15T08:34:11;11.50;99.90
18597;DHT22;9428;50.950;6.912;2022-11-15T08:36:58;11.40;99.90
18597;DHT22;9428;50.950;6.912;2022-11-15T08:39:46;11.60;99.90
18597;DHT22;9428;50.950;6.912;2022-11-15T08:42:34;11.90;99.90
18597;DHT22;9428;50.950;6.912;2022-11-15T08:45:21;11.40;99.90
18597;DHT22;9428;50.950;6.912;2022-11-15T08:48:08;11.50;99.90
18597;DHT22;9428;50.950;6.912;2022-11-15T08:50:56;11.70;99.90
18597;DHT22;9428;50.950;6.912;2022-11-15T08:53:43;11.50;99.90
18597;DHT22;9428;50.950;6.912;2022-11-15T08:56:32;11.60;99.90
18597;DHT22;9428;50.950;6.912;2022-11-15T08:59:19;11.60;99.90
18597;DHT22;9428;50.950;6.912;2022-11-15T09:02:10;11.60;99.90
18597;DHT22;9428;50.950;6.912;2022-11-15T09:04:58;12.00;99.90
18597;DHT22;9428;50.950;6.912;2022-11-15T09:07:45;12.10;99.90
18597;DHT22;9428;50.950;6.912;2022-11-15T09:10:32;11.70;99.90
18597;DHT22;9428;50.950;6.912;2022-11-15T09:13:21;12.30;99.90
18597;DHT22;9428;50.950;6.912;2022-11-15T09:16:08;11.70;99.90
18597;DHT22;9428;50.950;6.912;2022-11-15T09:18:57;11.70;99.90
18597;DHT22;9428;50.950;6.912;2022-11-15T09:21:44;12.10;99.90
18597;DHT22;9428;50.950;6.912;2022-11-15T09:24:32;12.00;99.90
18597;DHT22;9428;50.950;6.912;2022-11-15T09:27:19;11.70;99.90
18597;DHT22;9428;50.950;6.912;2022-11-15T09:30:08;12.10;99.90
18597;DHT22;9428;50.950;6.912;2022-11-15T09:32:55;11.80;99.90
18597;DHT22;9428;50.950;6.912;2022-11-15T09:35:43;11.80;99.90
18597;DHT22;9428;50.950;6.912;2022-11-15T09:38:30;11.80;99.90
18597;DHT22;9428;50.950;6.912;2022-11-15T09:41:43;12.30;99.90
18597;DHT22;9428;50.950;6.912;2022-11-15T09:44:41;11.90;99.90
18597;DHT22;9428;50.950;6.912;2022-11-15T09:47:46;11.90;99.90
18597;DHT22;9428;50.950;6.912;2022-11-15T09:50:38;12.00;99.90
18597;DHT22;9428;50.950;6.912;2022-11-15T09:53:29;12.00;99.90
18597;DHT22;9428;50.950;6.912;2022-11-15T09:56:19;12.00;99.90
18597;DHT22;9428;50.950;6.912;2022-11-15T09:59:24;11.90;99.90
18597;DHT22;9428;50.950;6.912;2022-11-15T10:02:23;11.90;99.90
18597;DHT22;9428;50.950;6.912;2022-11-15T10:05:22;12.00;99.90
18597;DHT22;9428;50.950;6.912;2022-11-15T10:08:25;12.00;99.90
18597;DHT22;9428;50.950;6.912;2022-11-15T10:11:18;12.00;99.90
18597;DHT22;9428;50.950;6.912;2022-11-15T10:14:11;12.40;99.90
18597;DHT22;9428;50.950;6.912;2022-11-15T10:20:17;12.20;99.90
18597;DHT22;9428;50.950;6.912;2022-11-15T10:23:10;12.10;99.90
18597;DHT22;9428;50.950;6.912;2022-11-15T10:25:59;12.60;99.90
18597;DHT22;9428;50.950;6.912;2022-11-15T10:28:46;12.10;99.90
18597;DHT22;9428;50.950;6.912;2022-11-15T10:31:34;12.10;99.90
18597;DHT22;9428;50.950;6.912;2022-11-15T10:34:22;12.10;99.90
18597;DHT22;9428;50.950;6.912;2022-11-15T10:37:11;12.10;99.90
18597;DHT22;9428;50.950;6.912;2022-11-15T10:40:15;12.20;99.90
18597;DHT22;9428;50.950;6.912;2022-11-15T10:43:14;12.30;99.90
18597;DHT22;9428;50.950;6.912;2022-11-15T10:46:18;12.30;99.90
18597;DHT22;9428;50.950;6.912;2022-11-15T10:49:13;12.60;99.90
18597;DHT22;9428;50.950;6.912;2022-11-15T10:52:04;12.40;99.90
18597;DHT22;9428;50.950;6.912;2022-11-15T10:55:02;12.70;99.90
18597;DHT22;9428;50.950;6.912;2022-11-15T10:57:54;12.80;99.90
18597;DHT22;9428;50.950;6.912;2022-11-15T11:00:41;12.30;99.90
18597;DHT22;9428;50.950;6.912;2022-11-15T11:03:31;12.30;99.90
18597;DHT22;9428;50.950;6.912;2022-11-15T11:06:21;12.40;99.90
18597;DHT22;9428;50.950;6.912;2022-11-15T11:09:23;12.50;99.90
18597;DHT22;9428;50.950;6.912;2022-11-15T11:12:12;12.40;99.90
18597;DHT22;9428;50.950;6.912;2022-11-15T11:15:10;12.50;99.90
18597;DHT22;9428;50.950;6.912;2022-11-15T11:18:04;12.50;99.90
18597;DHT22;9428;50.950;6.912;2022-11-15T11:20:57;12.50;99.90
18597;DHT22;9428;50.950;6.912;2022-11-15T11:23:52;12.40;99.90
18597;DHT22;9428;50.950;6.912;2022-11-15T11:26:44;12.50;99.90
18597;DHT22;9428;50.950;6.912;2022-11-15T11:29:46;12.70;99.90
18597;DHT22;9428;50.950;6.912;2022-11-15T11:32:52;12.70;99.90
18597;DHT22;9428;50.950;6.912;2022-11-15T11:35:55;12.80;99.90
18597;DHT22;9428;50.950;6.912;2022-11-15T11:38:51;12.70;99.90
18597;DHT22;9428;50.950;6.912;2022-11-15T11:41:53;12.80;99.90
18597;DHT22;9428;50.950;6.912;2022-11-15T11:44:49;12.70;99.90
18597;DHT22;9428;50.950;6.912;2022-11-15T11:47:39;12.70;99.90
18597;DHT22;9428;50.950;6.912;2022-11-15T11:50:29;12.70;99.90
18597;DHT22;9428;50.950;6.912;2022-11-15T11:53:24;12.80;99.90
18597;DHT22;9428;50.950;6.912;2022-11-15T11:56:19;12.70;99.90
18597;DHT22;9428;50.950;6.912;2022-11-15T11:59:15;13.20;99.90
18597;DHT22;9428;50.950;6.912;2022-11-15T12:02:14;12.90;99.90
18597;DHT22;9428;50.950;6.912;2022-11-15T12:05:10;13.00;99.90
18597;DHT22;9428;50.950;6.912;2022-11-15T12:08:03;13.00;99.90
18597;DHT22;9428;50.950;6.912;2022-11-15T12:11:00;13.30;99.90
18597;DHT22;9428;50.950;6.912;2022-11-15T12:13:56;13.10;99.90
18597;DHT22;9428;50.950;6.912;2022-11-15T12:16:45;13.00;99.90
18597;DHT22;9428;50.950;6.912;2022-11-15T12:19:32;13.00;99.90
18597;DHT22;9428;50.950;6.912;2022-11-15T12:22:24;13.10;99.90
18597;DHT22;9428;50.950;6.912;2022-11-15T12:25:18;13.20;99.90
18597;DHT22;9428;50.950;6.912;2022-11-15T12:28:12;13.00;99.90
18597;DHT22;9428;50.950;6.912;2022-11-15T12:31:05;13.10;99.90
18597;DHT22;9428;50.950;6.912;2022-11-15T12:33:58;13.10;99.90
18597;DHT22;9428;50.950;6.912;2022-11-15T12:36:46;13.50;99.90
18597;DHT22;9428;50.950;6.912;2022-11-15T12:40:15;13.10;99.90
18597;DHT22;9428;50.950;6.912;2022-11-15T12:47:21;13.30;99.90
18597;DHT22;9428;50.950;6.912;2022-11-15T12:50:12;13.30;99.90
18597;DHT22;9428;50.950;6.912;2022-11-15T12:53:26;13.30;99.90
18597;DHT22;9428;50.950;6.912;2022-11-15T12:56:23;13.50;99.90
18597;DHT22;9428;50.950;6.912;2022-11-15T12:59:38;13.60;99.90
18597;DHT22;9428;50.950;6.912;2022-11-15T13:02:21;13.60;99.90
18597;DHT22;9428;50.950;6.912;2022-11-15T13:05:53;13.60;99.90
18597;DHT22;9428;50.950;6.912;2022-11-15T13:08:47;13.50;99.90
18597;DHT22;9428;50.950;6.912;2022-11-15T13:11:51;13.50;99.90
18597;DHT22;9428;50.950;6.912;2022-11-15T13:14:50;13.60;99.90
18597;DHT22;9428;50.950;6.912;2022-11-15T13:17:40;13.60;99.90
18597;DHT22;9428;50.950;6.912;2022-11-15T13:20:30;13.70;99.90
18597;DHT22;9428;50.950;6.912;2022-11-15T13:23:18;13.60;99.90
18597;DHT22;9428;50.950;6.912;2022-11-15T13:26:11;13.90;99.90
18597;DHT22;9428;50.950;6.912;2022-11-15T13:28:59;13.90;99.90
18597;DHT22;9428;50.950;6.912;2022-11-15T13:31:47;13.90;99.90
18597;DHT22;9428;50.950;6.912;2022-11-15T13:34:37;14.50;99.90
18597;DHT22;9428;50.950;6.912;2022-11-15T13:37:29;14.40;99.90
18597;DHT22;9428;50.950;6.912;2022-11-15T13:40:26;13.80;99.90
18597;DHT22;9428;50.950;6.912;2022-11-15T13:43:26;13.70;99.90
18597;DHT22;9428;50.950;6.912;2022-11-15T13:46:17;13.70;99.90
18597;DHT22;9428;50.950;6.912;2022-11-15T13:49:08;13.60;99.90
18597;DHT22;9428;50.950;6.912;2022-11-15T13:52:00;13.50;99.90
18597;DHT22;9428;50.950;6.912;2022-11-15T13:54:55;13.50;99.90
18597;DHT22;9428;50.950;6.912;2022-11-15T13:57:45;13.50;99.90
18597;DHT22;9428;50.950;6.912;2022-11-15T14:00:36;14.20;99.90
18597;DHT22;9428;50.950;6.912;2022-11-15T14:03:26;13.60;99.90
18597;DHT22;9428;50.950;6.912;2022-11-15T14:06:16;13.60;99.90
18597;DHT22;9428;50.950;6.912;2022-11-15T14:09:35;13.60;99.90
18597;DHT22;9428;50.950;6.912;2022-11-15T14:12:30;13.60;99.90
18597;DHT22;9428;50.950;6.912;2022-11-15T14:15:25;13.70;99.90
18597;DHT22;9428;50.950;6.912;2022-11-15T14:21:33;13.60;99.90
18597;DHT22;9428;50.950;6.912;2022-11-15T14:24:21;13.60;99.90
18597;DHT22;9428;50.950;6.912;2022-11-15T14:27:25;13.60;99.90
18597;DHT22;9428;50.950;6.912;2022-11-15T14:30:14;13.50;99.90
18597;DHT22;9428;50.950;6.912;2022-11-15T14:33:02;13.80;99.90
18597;DHT22;9428;50.950;6.912;2022-11-15T14:36:05;13.50;99.90
18597;DHT22;9428;50.950;6.912;2022-11-15T14:38:52;13.50;99.90
18597;DHT22;9428;50.950;6.912;2022-11-15T14:41:40;13.60;99.90
18597;DHT22;9428;50.950;6.912;2022-11-15T14:44:28;13.50;99.90
18597;DHT22;9428;50.950;6.912;2022-11-15T14:47:16;13.60;99.90
18597;DHT22;9428;50.950;6.912;2022-11-15T14:50:03;13.50;99.90
18597;DHT22;9428;50.950;6.912;2022-11-15T14:52:51;13.50;99.90
18597;DHT22;9428;50.950;6.912;2022-11-15T14:55:38;13.50;99.90
18597;DHT22;9428;50.950;6.912;2022-11-15T14:58:29;13.50;99.90
18597;DHT22;9428;50.950;6.912;2022-11-15T15:01:21;13.50;99.90
18597;DHT22;9428;50.950;6.912;2022-11-15T15:04:09;13.50;99.90
18597;DHT22;9428;50.950;6.912;2022-11-15T15:06:57;13.50;99.90
18597;DHT22;9428;50.950;6.912;2022-11-15T15:09:48;13.50;99.90
18597;DHT22;9428;50.950;6.912;2022-11-15T15:12:35;13.60;99.90
18597;DHT22;9428;50.950;6.912;2022-11-15T15:15:25;13.60;99.90
18597;DHT22;9428;50.950;6.912;2022-11-15T15:18:14;13.50;99.90
18597;DHT22;9428;50.950;6.912;2022-11-15T15:21:02;13.50;99.90
18597;DHT22;9428;50.950;6.912;2022-11-15T15:23:53;13.50;99.90
18597;DHT22;9428;50.950;6.912;2022-11-15T15:26:41;13.50;99.90
18597;DHT22;9428;50.950;6.912;2022-11-15T15:29:29;13.50;99.90
18597;DHT22;9428;50.950;6.912;2022-11-15T15:32:17;13.60;99.90
18597;DHT22;9428;50.950;6.912;2022-11-15T15:35:06;13.70;99.90
18597;DHT22;9428;50.950;6.912;2022-11-15T15:37:58;13.40;99.90
18597;DHT22;9428;50.950;6.912;2022-11-15T15:40:45;13.50;99.90
18597;DHT22;9428;50.950;6.912;2022-11-15T15:43:32;13.40;99.90
18597;DHT22;9428;50.950;6.912;2022-11-15T15:46:20;13.40;99.90
18597;DHT22;9428;50.950;6.912;2022-11-15T15:49:09;13.50;99.90
18597;DHT22;9428;50.950;6.912;2022-11-15T15:51:58;13.40;99.90
18597;DHT22;9428;50.950;6.912;2022-11-15T15:54:46;13.30;99.90
18597;DHT22;9428;50.950;6.912;2022-11-15T15:57:33;13.40;99.90
18597;DHT22;9428;50.950;6.912;2022-11-15T16:00:22;13.30;99.90
18597;DHT22;9428;50.950;6.912;2022-11-15T16:03:10;13.30;99.90
18597;DHT22;9428;50.950;6.912;2022-11-15T16:05:57;13.30;99.90
18597;DHT22;9428;50.950;6.912;2022-11-15T16:08:46;13.30;99.90
18597;DHT22;9428;50.950;6.912;2022-11-15T16:11:33;13.40;99.90
18597;DHT22;9428;50.950;6.912;2022-11-15T16:14:21;13.40;99.90
18597;DHT22;9428;50.950;6.912;2022-11-15T16:17:09;13.50;99.90
18597;DHT22;9428;50.950;6.912;2022-11-15T16:20:03;13.40;99.90
18597;DHT22;9428;50.950;6.912;2022-11-15T16:22:50;13.40;99.90
18597;DHT22;9428;50.950;6.912;2022-11-15T16:25:51;13.40;99.90
18597;DHT22;9428;50.950;6.912;2022-11-15T16:28:40;13.40;99.90
18597;DHT22;9428;50.950;6.912;2022-11-15T16:31:28;14.00;99.90
18597;DHT22;9428;50.950;6.912;2022-11-15T16:34:15;13.40;99.90
18597;DHT22;9428;50.950;6.912;2022-11-15T16:37:03;13.50;99.90
18597;DHT22;9428;50.950;6.912;2022-11-15T16:39:51;13.40;99.90
18597;DHT22;9428;50.950;6.912;2022-11-15T16:42:40;13.90;99.90
18597;DHT22;9428;50.950;6.912;2022-11-15T16:45:28;13.40;99.90
18597;DHT22;9428;50.950;6.912;2022-11-15T16:48:21;13.40;99.90
18597;DHT22;9428;50.950;6.912;2022-11-15T16:51:10;13.40;99.90
18597;DHT22;9428;50.950;6.912;2022-11-15T16:53:57;13.40;99.90
18597;DHT22;9428;50.950;6.912;2022-11-15T16:56:44;13.40;99.90
18597;DHT22;9428;50.950;6.912;2022-11-15T16:59:34;13.30;99.90
18597;DHT22;9428;50.950;6.912;2022-11-15T17:02:21;13.40;99.90
18597;DHT22;9428;50.950;6.912;2022-11-15T17:05:09;13.30;99.90
18597;DHT22;9428;50.950;6.912;2022-11-15T17:07:58;13.40;99.90
18597;DHT22;9428;50.950;6.912;2022-11-15T17:10:46;13.40;99.90
18597;DHT22;9428;50.950;6.912;2022-11-15T17:13:33;13.30;99.90
18597;DHT22;9428;50.950;6.912;2022-11-15T17:16:22;13.30;99.90
18597;DHT22;9428;50.950;6.912;2022-11-15T17:19:12;13.30;99.90
18597;DHT22;9428;50.950;6.912;2022-11-15T17:22:00;13.40;99.90
18597;DHT22;9428;50.950;6.912;2022-11-15T17:24:48;13.40;99.90
18597;DHT22;9428;50.950;6.912;2022-11-15T17:27:35;13.30;99.90
18597;DHT22;9428;50.950;6.912;2022-11-15T17:30:23;13.40;99.90
18597;DHT22;9428;50.950;6.912;2022-11-15T17:33:11;13.40;99.90
18597;DHT22;9428;50.950;6.912;2022-11-15T17:36:00;13.30;99.90
18597;DHT22;9428;50.950;6.912;2022-11-15T17:38:51;13.40;99.90
18597;DHT22;9428;50.950;6.912;2022-11-15T17:41:38;13.30;99.90
18597;DHT22;9428;50.950;6.912;2022-11-15T17:44:25;13.10;99.90
18597;DHT22;9428;50.950;6.912;2022-11-15T17:47:12;13.00;99.90
18597;DHT22;9428;50.950;6.912;2022-11-15T17:50:01;13.00;99.90
18597;DHT22;9428;50.950;6.912;2022-11-15T17:52:49;13.00;99.90
18597;DHT22;9428;50.950;6.912;2022-11-15T17:55:36;13.00;99.90
18597;DHT22;9428;50.950;6.912;2022-11-15T17:58:23;12.90;99.90
18597;DHT22;9428;50.950;6.912;2022-11-15T18:01:14;12.90;99.90
18597;DHT22;9428;50.950;6.912;2022-11-15T18:04:04;12.90;99.90
18597;DHT22;9428;50.950;6.912;2022-11-15T18:06:53;12.90;99.90
18597;DHT22;9428;50.950;6.912;2022-11-15T18:09:41;12.90;99.90
18597;DHT22;9428;50.950;6.912;2022-11-15T18:12:30;12.90;99.90
18597;DHT22;9428;50.950;6.912;2022-11-15T18:15:17;12.80;99.90
18597;DHT22;9428;50.950;6.912;2022-11-15T18:18:06;12.80;99.90
18597;DHT22;9428;50.950;6.912;2022-11-15T18:20:59;12.70;99.90
18597;DHT22;9428;50.950;6.912;2022-11-15T18:23:48;13.40;99.90
18597;DHT22;9428;50.950;6.912;2022-11-15T18:26:38;12.80;99.90